sensor_id;sensor_type;location;lat;lon;timestamp;P1;durP1;ratioP1;P2;durP2;ratioP2
81180;SDS011;70650;51.408;7.132;2023-09-12T00:01:05;6.85;;;2.95;;
81180;SDS011;70650;51.408;7.132;2023-09-12T00:03:31;6.85;;;2.90;;
81180;SDS011;70650;51.408;7.132;2023-09-12T00:05:57;5.93;;;2.95;;
81180;SDS011;70650;51.408;7.132;2023-09-12T00:08:24;7.45;;;3.38;;
81180;SDS011;70650;51.408;7.132;2023-09-12T00:11:05;7.10;;;2.88;;
81180;SDS011;70650;51.408;7.132;2023-09-12T00:13:35;6.22;;;2.80;;
81180;SDS011;70650;51.408;7.132;2023-09-12T00:16:01;6.53;;;2.90;;
81180;SDS011;70650;51.408;7.132;2023-09-12T00:18:26;7.53;;;2.83;;
81180;SDS011;70650;51.408;7.132;2023-09-12T00:20:52;7.15;;;2.83;;
81180;SDS011;70650;51.408;7.132;2023-09-12T00:23:20;5.78;;;2.95;;
81180;SDS011;70650;51.408;7.132;2023-09-12T00:25:46;6.22;;;2.60;;
81180;SDS011;70650;51.408;7.132;2023-09-12T00:28:11;6.00;;;2.80;;
81180;SDS011;70650;51.408;7.132;2023-09-12T00:30:36;6.67;;;2.93;;
81180;SDS011;70650;51.408;7.132;2023-09-12T00:33:02;7.20;;;3.23;;
81180;SDS011;70650;51.408;7.132;2023-09-12T00:35:27;5.93;;;2.85;;
81180;SDS011;70650;51.408;7.132;2023-09-12T00:37:53;6.75;;;2.65;;
81180;SDS011;70650;51.408;7.132;2023-09-12T00:40:20;6.60;;;3.10;;
81180;SDS011;70650;51.408;7.132;2023-09-12T00:42:45;5.85;;;2.83;;
81180;SDS011;70650;51.408;7.132;2023-09-12T00:45:12;6.95;;;2.75;;
81180;SDS011;70650;51.408;7.132;2023-09-12T00:47:38;6.43;;;2.83;;
81180;SDS011;70650;51.408;7.132;2023-09-12T00:50:04;6.70;;;2.72;;
81180;SDS011;70650;51.408;7.132;2023-09-12T00:52:30;6.50;;;2.90;;
81180;SDS011;70650;51.408;7.132;2023-09-12T00:54:59;6.43;;;2.75;;
81180;SDS011;70650;51.408;7.132;2023-09-12T00:57:25;6.28;;;2.75;;
81180;SDS011;70650;51.408;7.132;2023-09-12T00:59:51;6.15;;;2.95;;
81180;SDS011;70650;51.408;7.132;2023-09-12T01:02:18;6.82;;;3.13;;
81180;SDS011;70650;51.408;7.132;2023-09-12T01:04:44;9.57;;;3.72;;
81180;SDS011;70650;51.408;7.132;2023-09-12T01:07:10;6.85;;;3.53;;
81180;SDS011;70650;51.408;7.132;2023-09-12T01:09:35;6.97;;;3.45;;
81180;SDS011;70650;51.408;7.132;2023-09-12T01:12:01;8.15;;;3.65;;
81180;SDS011;70650;51.408;7.132;2023-09-12T01:14:30;6.70;;;3.17;;
81180;SDS011;70650;51.408;7.132;2023-09-12T01:17:04;6.75;;;3.13;;
81180;SDS011;70650;51.408;7.132;2023-09-12T01:19:37;6.75;;;3.03;;
81180;SDS011;70650;51.408;7.132;2023-09-12T01:27:21;6.78;;;3.08;;
81180;SDS011;70650;51.408;7.132;2023-09-12T01:29:51;7.35;;;3.17;;
81180;SDS011;70650;51.408;7.132;2023-09-12T01:32:21;7.43;;;3.50;;
81180;SDS011;70650;51.408;7.132;2023-09-12T01:34:46;7.95;;;3.70;;
81180;SDS011;70650;51.408;7.132;2023-09-12T01:37:12;7.55;;;3.40;;
81180;SDS011;70650;51.408;7.132;2023-09-12T01:39:39;7.65;;;3.88;;
81180;SDS011;70650;51.408;7.132;2023-09-12T01:42:08;7.05;;;3.50;;
81180;SDS011;70650;51.408;7.132;2023-09-12T01:44:39;8.13;;;4.10;;
81180;SDS011;70650;51.408;7.132;2023-09-12T01:47:09;7.95;;;3.90;;
81180;SDS011;70650;51.408;7.132;2023-09-12T01:49:37;8.57;;;3.90;;
81180;SDS011;70650;51.408;7.132;2023-09-12T01:52:09;8.43;;;3.80;;
81180;SDS011;70650;51.408;7.132;2023-09-12T01:54:35;10.38;;;4.50;;
81180;SDS011;70650;51.408;7.132;2023-09-12T01:57:02;8.90;;;4.18;;
81180;SDS011;70650;51.408;7.132;2023-09-12T01:59:28;8.48;;;4.40;;
81180;SDS011;70650;51.408;7.132;2023-09-12T02:01:54;7.80;;;3.97;;
81180;SDS011;70650;51.408;7.132;2023-09-12T02:04:21;9.32;;;4.50;;
81180;SDS011;70650;51.408;7.132;2023-09-12T02:06:46;10.45;;;4.60;;
81180;SDS011;70650;51.408;7.132;2023-09-12T02:09:11;11.07;;;5.10;;
81180;SDS011;70650;51.408;7.132;2023-09-12T02:11:37;9.60;;;4.68;;
81180;SDS011;70650;51.408;7.132;2023-09-12T02:14:04;9.85;;;5.13;;
81180;SDS011;70650;51.408;7.132;2023-09-12T02:16:31;10.65;;;5.43;;
81180;SDS011;70650;51.408;7.132;2023-09-12T02:18:56;9.98;;;5.68;;
81180;SDS011;70650;51.408;7.132;2023-09-12T02:21:22;8.63;;;5.10;;
81180;SDS011;70650;51.408;7.132;2023-09-12T02:23:47;9.68;;;5.13;;
81180;SDS011;70650;51.408;7.132;2023-09-12T02:26:12;8.90;;;4.67;;
81180;SDS011;70650;51.408;7.132;2023-09-12T02:28:37;10.07;;;5.50;;
81180;SDS011;70650;51.408;7.132;2023-09-12T02:31:03;11.27;;;5.93;;
81180;SDS011;70650;51.408;7.132;2023-09-12T02:33:29;9.90;;;5.13;;
81180;SDS011;70650;51.408;7.132;2023-09-12T02:35:55;10.90;;;5.88;;
81180;SDS011;70650;51.408;7.132;2023-09-12T02:38:20;10.53;;;5.60;;
81180;SDS011;70650;51.408;7.132;2023-09-12T02:40:46;10.35;;;5.78;;
81180;SDS011;70650;51.408;7.132;2023-09-12T02:43:11;12.10;;;6.13;;
81180;SDS011;70650;51.408;7.132;2023-09-12T02:45:36;12.13;;;6.47;;
81180;SDS011;70650;51.408;7.132;2023-09-12T02:48:01;14.80;;;6.83;;
81180;SDS011;70650;51.408;7.132;2023-09-12T02:50:27;12.35;;;6.53;;
81180;SDS011;70650;51.408;7.132;2023-09-12T02:52:53;11.10;;;6.00;;
81180;SDS011;70650;51.408;7.132;2023-09-12T02:55:19;12.43;;;6.57;;
81180;SDS011;70650;51.408;7.132;2023-09-12T02:57:44;12.33;;;6.53;;
81180;SDS011;70650;51.408;7.132;2023-09-12T03:00:10;11.93;;;6.00;;
81180;SDS011;70650;51.408;7.132;2023-09-12T03:02:36;12.50;;;7.35;;
81180;SDS011;70650;51.408;7.132;2023-09-12T03:05:02;12.32;;;6.78;;
81180;SDS011;70650;51.408;7.132;2023-09-12T03:07:27;14.48;;;6.85;;
81180;SDS011;70650;51.408;7.132;2023-09-12T03:09:54;13.20;;;7.22;;
81180;SDS011;70650;51.408;7.132;2023-09-12T03:12:19;12.57;;;7.53;;
81180;SDS011;70650;51.408;7.132;2023-09-12T03:14:45;12.13;;;7.20;;
81180;SDS011;70650;51.408;7.132;2023-09-12T03:17:11;13.27;;;7.23;;
81180;SDS011;70650;51.408;7.132;2023-09-12T03:19:36;13.25;;;6.93;;
81180;SDS011;70650;51.408;7.132;2023-09-12T03:22:02;16.52;;;8.35;;
81180;SDS011;70650;51.408;7.132;2023-09-12T03:24:27;13.13;;;7.70;;
81180;SDS011;70650;51.408;7.132;2023-09-12T03:26:56;13.43;;;7.85;;
81180;SDS011;70650;51.408;7.132;2023-09-12T03:29:21;13.32;;;7.63;;
81180;SDS011;70650;51.408;7.132;2023-09-12T03:31:46;15.13;;;8.37;;
81180;SDS011;70650;51.408;7.132;2023-09-12T03:34:13;12.10;;;7.18;;
81180;SDS011;70650;51.408;7.132;2023-09-12T03:36:39;13.17;;;7.10;;
81180;SDS011;70650;51.408;7.132;2023-09-12T03:39:05;12.13;;;6.60;;
81180;SDS011;70650;51.408;7.132;2023-09-12T03:41:33;13.32;;;6.90;;
81180;SDS011;70650;51.408;7.132;2023-09-12T03:44:00;12.38;;;6.68;;
81180;SDS011;70650;51.408;7.132;2023-09-12T03:46:25;13.88;;;7.15;;
81180;SDS011;70650;51.408;7.132;2023-09-12T03:48:50;14.68;;;7.57;;
81180;SDS011;70650;51.408;7.132;2023-09-12T03:51:16;13.10;;;7.55;;
81180;SDS011;70650;51.408;7.132;2023-09-12T03:53:41;11.98;;;7.07;;
81180;SDS011;70650;51.408;7.132;2023-09-12T03:56:07;13.43;;;7.18;;
81180;SDS011;70650;51.408;7.132;2023-09-12T03:58:38;13.90;;;7.22;;
81180;SDS011;70650;51.408;7.132;2023-09-12T04:01:06;14.35;;;6.70;;
81180;SDS011;70650;51.408;7.132;2023-09-12T04:03:31;13.35;;;7.60;;
81180;SDS011;70650;51.408;7.132;2023-09-12T04:05:56;13.50;;;7.60;;
81180;SDS011;70650;51.408;7.132;2023-09-12T04:08:23;13.60;;;6.80;;
81180;SDS011;70650;51.408;7.132;2023-09-12T04:10:48;14.65;;;7.10;;
81180;SDS011;70650;51.408;7.132;2023-09-12T04:13:13;13.20;;;7.20;;
81180;SDS011;70650;51.408;7.132;2023-09-12T04:15:39;13.85;;;6.90;;
81180;SDS011;70650;51.408;7.132;2023-09-12T04:18:04;14.60;;;7.40;;
81180;SDS011;70650;51.408;7.132;2023-09-12T04:20:30;14.10;;;7.32;;
81180;SDS011;70650;51.408;7.132;2023-09-12T04:22:55;14.43;;;7.27;;
81180;SDS011;70650;51.408;7.132;2023-09-12T04:25:20;11.77;;;6.40;;
81180;SDS011;70650;51.408;7.132;2023-09-12T04:27:46;15.57;;;7.85;;
81180;SDS011;70650;51.408;7.132;2023-09-12T04:30:11;16.48;;;7.85;;
81180;SDS011;70650;51.408;7.132;2023-09-12T04:32:37;11.27;;;7.07;;
81180;SDS011;70650;51.408;7.132;2023-09-12T04:35:02;12.98;;;7.10;;
81180;SDS011;70650;51.408;7.132;2023-09-12T04:37:28;15.38;;;7.47;;
81180;SDS011;70650;51.408;7.132;2023-09-12T04:39:53;15.40;;;8.15;;
81180;SDS011;70650;51.408;7.132;2023-09-12T04:42:19;15.90;;;7.72;;
81180;SDS011;70650;51.408;7.132;2023-09-12T04:44:44;14.27;;;7.07;;
81180;SDS011;70650;51.408;7.132;2023-09-12T04:47:09;13.13;;;7.20;;
81180;SDS011;70650;51.408;7.132;2023-09-12T04:49:35;14.00;;;7.13;;
81180;SDS011;70650;51.408;7.132;2023-09-12T04:52:02;12.50;;;6.90;;
81180;SDS011;70650;51.408;7.132;2023-09-12T04:54:27;11.05;;;6.25;;
81180;SDS011;70650;51.408;7.132;2023-09-12T04:56:52;10.98;;;6.07;;
81180;SDS011;70650;51.408;7.132;2023-09-12T04:59:18;11.05;;;5.93;;
81180;SDS011;70650;51.408;7.132;2023-09-12T05:01:43;11.15;;;6.20;;
81180;SDS011;70650;51.408;7.132;2023-09-12T05:04:11;9.43;;;5.35;;
81180;SDS011;70650;51.408;7.132;2023-09-12T05:06:36;11.20;;;5.38;;
81180;SDS011;70650;51.408;7.132;2023-09-12T05:09:02;10.45;;;5.80;;
81180;SDS011;70650;51.408;7.132;2023-09-12T05:11:28;11.05;;;5.47;;
81180;SDS011;70650;51.408;7.132;2023-09-12T05:13:53;11.85;;;5.85;;
81180;SDS011;70650;51.408;7.132;2023-09-12T05:16:18;13.02;;;6.18;;
81180;SDS011;70650;51.408;7.132;2023-09-12T05:18:44;11.00;;;5.75;;
81180;SDS011;70650;51.408;7.132;2023-09-12T05:21:10;10.77;;;5.68;;
81180;SDS011;70650;51.408;7.132;2023-09-12T05:23:36;11.38;;;5.43;;
81180;SDS011;70650;51.408;7.132;2023-09-12T05:26:02;10.15;;;5.25;;
81180;SDS011;70650;51.408;7.132;2023-09-12T05:28:27;13.73;;;6.40;;
81180;SDS011;70650;51.408;7.132;2023-09-12T05:30:53;20.42;;;7.78;;
81180;SDS011;70650;51.408;7.132;2023-09-12T05:33:18;14.43;;;6.73;;
81180;SDS011;70650;51.408;7.132;2023-09-12T05:35:45;16.77;;;7.72;;
81180;SDS011;70650;51.408;7.132;2023-09-12T05:38:10;13.68;;;6.80;;
81180;SDS011;70650;51.408;7.132;2023-09-12T05:40:36;16.75;;;7.07;;
81180;SDS011;70650;51.408;7.132;2023-09-12T05:43:01;12.10;;;6.90;;
81180;SDS011;70650;51.408;7.132;2023-09-12T05:45:28;15.18;;;7.72;;
81180;SDS011;70650;51.408;7.132;2023-09-12T05:47:55;13.32;;;6.97;;
81180;SDS011;70650;51.408;7.132;2023-09-12T05:50:21;13.68;;;7.22;;
81180;SDS011;70650;51.408;7.132;2023-09-12T05:52:46;16.67;;;8.25;;
81180;SDS011;70650;51.408;7.132;2023-09-12T05:55:12;14.73;;;7.47;;
81180;SDS011;70650;51.408;7.132;2023-09-12T05:57:37;14.38;;;7.57;;
81180;SDS011;70650;51.408;7.132;2023-09-12T06:00:02;12.07;;;6.67;;
81180;SDS011;70650;51.408;7.132;2023-09-12T06:02:35;14.02;;;7.70;;
81180;SDS011;70650;51.408;7.132;2023-09-12T06:05:00;14.13;;;7.37;;
81180;SDS011;70650;51.408;7.132;2023-09-12T06:07:26;13.13;;;6.25;;
81180;SDS011;70650;51.408;7.132;2023-09-12T06:09:52;12.40;;;7.07;;
81180;SDS011;70650;51.408;7.132;2023-09-12T06:12:17;13.57;;;6.85;;
81180;SDS011;70650;51.408;7.132;2023-09-12T06:14:45;12.63;;;7.40;;
81180;SDS011;70650;51.408;7.132;2023-09-12T06:17:11;14.85;;;7.07;;
81180;SDS011;70650;51.408;7.132;2023-09-12T06:19:37;12.63;;;6.90;;
81180;SDS011;70650;51.408;7.132;2023-09-12T06:22:04;13.32;;;7.22;;
81180;SDS011;70650;51.408;7.132;2023-09-12T06:24:29;13.35;;;7.57;;
81180;SDS011;70650;51.408;7.132;2023-09-12T06:26:55;11.83;;;6.03;;
81180;SDS011;70650;51.408;7.132;2023-09-12T06:29:21;11.82;;;5.85;;
81180;SDS011;70650;51.408;7.132;2023-09-12T06:31:47;13.90;;;8.05;;
81180;SDS011;70650;51.408;7.132;2023-09-12T06:34:13;16.40;;;8.13;;
81180;SDS011;70650;51.408;7.132;2023-09-12T06:36:38;17.98;;;10.38;;
81180;SDS011;70650;51.408;7.132;2023-09-12T06:39:06;19.50;;;11.32;;
81180;SDS011;70650;51.408;7.132;2023-09-12T06:41:31;16.35;;;9.00;;
81180;SDS011;70650;51.408;7.132;2023-09-12T06:44:00;20.38;;;10.40;;
81180;SDS011;70650;51.408;7.132;2023-09-12T06:46:28;12.43;;;6.13;;
81180;SDS011;70650;51.408;7.132;2023-09-12T06:48:53;12.27;;;6.60;;
81180;SDS011;70650;51.408;7.132;2023-09-12T06:51:18;12.77;;;7.03;;
81180;SDS011;70650;51.408;7.132;2023-09-12T06:53:51;15.77;;;8.25;;
81180;SDS011;70650;51.408;7.132;2023-09-12T06:56:17;18.90;;;8.75;;
81180;SDS011;70650;51.408;7.132;2023-09-12T06:58:42;16.48;;;8.85;;
81180;SDS011;70650;51.408;7.132;2023-09-12T07:01:08;17.48;;;8.85;;
81180;SDS011;70650;51.408;7.132;2023-09-12T07:03:33;16.27;;;8.98;;
81180;SDS011;70650;51.408;7.132;2023-09-12T07:06:01;16.42;;;9.18;;
81180;SDS011;70650;51.408;7.132;2023-09-12T07:10:56;13.52;;;7.43;;
81180;SDS011;70650;51.408;7.132;2023-09-12T07:13:22;13.00;;;7.10;;
81180;SDS011;70650;51.408;7.132;2023-09-12T07:15:49;13.00;;;6.70;;
81180;SDS011;70650;51.408;7.132;2023-09-12T07:18:17;12.25;;;6.18;;
81180;SDS011;70650;51.408;7.132;2023-09-12T07:20:44;13.40;;;6.22;;
81180;SDS011;70650;51.408;7.132;2023-09-12T07:23:10;11.48;;;5.78;;
81180;SDS011;70650;51.408;7.132;2023-09-12T07:25:38;10.27;;;5.38;;
81180;SDS011;70650;51.408;7.132;2023-09-12T07:28:04;11.05;;;4.68;;
81180;SDS011;70650;51.408;7.132;2023-09-12T07:30:30;11.10;;;5.18;;
81180;SDS011;70650;51.408;7.132;2023-09-12T07:32:55;11.98;;;5.75;;
81180;SDS011;70650;51.408;7.132;2023-09-12T07:35:21;10.32;;;5.22;;
81180;SDS011;70650;51.408;7.132;2023-09-12T07:37:48;10.55;;;5.32;;
81180;SDS011;70650;51.408;7.132;2023-09-12T07:40:16;9.07;;;4.80;;
81180;SDS011;70650;51.408;7.132;2023-09-12T07:42:42;9.43;;;4.45;;
81180;SDS011;70650;51.408;7.132;2023-09-12T07:45:08;10.27;;;5.32;;
81180;SDS011;70650;51.408;7.132;2023-09-12T07:47:34;9.95;;;5.03;;
81180;SDS011;70650;51.408;7.132;2023-09-12T07:49:59;9.10;;;4.60;;
81180;SDS011;70650;51.408;7.132;2023-09-12T07:52:27;8.95;;;5.13;;
81180;SDS011;70650;51.408;7.132;2023-09-12T07:54:58;9.43;;;4.68;;
81180;SDS011;70650;51.408;7.132;2023-09-12T07:57:25;10.27;;;5.30;;
81180;SDS011;70650;51.408;7.132;2023-09-12T07:59:51;10.00;;;4.70;;
81180;SDS011;70650;51.408;7.132;2023-09-12T08:02:16;10.82;;;5.28;;
81180;SDS011;70650;51.408;7.132;2023-09-12T08:04:43;11.10;;;5.40;;
81180;SDS011;70650;51.408;7.132;2023-09-12T08:07:09;9.35;;;4.57;;
81180;SDS011;70650;51.408;7.132;2023-09-12T08:09:50;7.80;;;4.40;;
81180;SDS011;70650;51.408;7.132;2023-09-12T08:12:20;9.52;;;4.40;;
81180;SDS011;70650;51.408;7.132;2023-09-12T08:14:46;9.60;;;4.68;;
81180;SDS011;70650;51.408;7.132;2023-09-12T08:17:13;8.75;;;5.03;;
81180;SDS011;70650;51.408;7.132;2023-09-12T08:19:39;8.73;;;4.40;;
81180;SDS011;70650;51.408;7.132;2023-09-12T08:22:05;8.38;;;3.92;;
81180;SDS011;70650;51.408;7.132;2023-09-12T08:24:34;8.65;;;4.25;;
81180;SDS011;70650;51.408;7.132;2023-09-12T08:27:01;9.40;;;4.50;;
81180;SDS011;70650;51.408;7.132;2023-09-12T08:29:28;7.32;;;3.63;;
81180;SDS011;70650;51.408;7.132;2023-09-12T08:31:53;7.70;;;4.05;;
81180;SDS011;70650;51.408;7.132;2023-09-12T08:34:20;8.57;;;4.38;;
81180;SDS011;70650;51.408;7.132;2023-09-12T08:36:45;8.32;;;3.97;;
81180;SDS011;70650;51.408;7.132;2023-09-12T08:39:12;7.78;;;4.07;;
81180;SDS011;70650;51.408;7.132;2023-09-12T08:41:41;9.40;;;4.60;;
81180;SDS011;70650;51.408;7.132;2023-09-12T08:44:06;9.27;;;4.65;;
81180;SDS011;70650;51.408;7.132;2023-09-12T08:46:32;9.57;;;5.15;;
81180;SDS011;70650;51.408;7.132;2023-09-12T08:48:57;11.32;;;5.50;;
81180;SDS011;70650;51.408;7.132;2023-09-12T08:51:24;11.93;;;5.80;;
81180;SDS011;70650;51.408;7.132;2023-09-12T08:53:50;10.40;;;6.22;;
81180;SDS011;70650;51.408;7.132;2023-09-12T08:56:17;11.00;;;6.57;;
81180;SDS011;70650;51.408;7.132;2023-09-12T08:58:44;10.85;;;6.32;;
81180;SDS011;70650;51.408;7.132;2023-09-12T09:01:11;11.93;;;7.13;;
81180;SDS011;70650;51.408;7.132;2023-09-12T09:03:38;11.68;;;7.50;;
81180;SDS011;70650;51.408;7.132;2023-09-12T09:06:10;15.70;;;8.75;;
81180;SDS011;70650;51.408;7.132;2023-09-12T09:08:37;16.08;;;8.73;;
81180;SDS011;70650;51.408;7.132;2023-09-12T09:11:04;11.82;;;7.30;;
81180;SDS011;70650;51.408;7.132;2023-09-12T09:13:31;12.13;;;7.40;;
81180;SDS011;70650;51.408;7.132;2023-09-12T09:18:52;10.75;;;6.50;;
81180;SDS011;70650;51.408;7.132;2023-09-12T09:21:29;11.63;;;6.18;;
81180;SDS011;70650;51.408;7.132;2023-09-12T09:24:00;11.57;;;5.70;;
81180;SDS011;70650;51.408;7.132;2023-09-12T09:29:25;11.60;;;5.82;;
81180;SDS011;70650;51.408;7.132;2023-09-12T09:31:56;10.20;;;5.30;;
81180;SDS011;70650;51.408;7.132;2023-09-12T09:34:23;10.68;;;6.20;;
81180;SDS011;70650;51.408;7.132;2023-09-12T09:36:52;10.02;;;5.85;;
81180;SDS011;70650;51.408;7.132;2023-09-12T09:39:19;12.65;;;6.13;;
81180;SDS011;70650;51.408;7.132;2023-09-12T09:45:16;6.38;;;3.05;;
81180;SDS011;70650;51.408;7.132;2023-09-12T09:47:42;5.05;;;2.35;;
81180;SDS011;70650;51.408;7.132;2023-09-12T09:50:08;6.22;;;2.50;;
81180;SDS011;70650;51.408;7.132;2023-09-12T09:55:13;4.77;;;2.20;;
81180;SDS011;70650;51.408;7.132;2023-09-12T09:57:40;4.97;;;2.08;;
81180;SDS011;70650;51.408;7.132;2023-09-12T10:00:05;5.70;;;1.80;;
81180;SDS011;70650;51.408;7.132;2023-09-12T10:02:36;4.72;;;1.92;;
81180;SDS011;70650;51.408;7.132;2023-09-12T10:05:05;6.70;;;2.58;;
81180;SDS011;70650;51.408;7.132;2023-09-12T10:07:32;5.00;;;1.83;;
81180;SDS011;70650;51.408;7.132;2023-09-12T10:09:59;4.97;;;2.08;;
81180;SDS011;70650;51.408;7.132;2023-09-12T10:12:41;6.43;;;1.77;;
81180;SDS011;70650;51.408;7.132;2023-09-12T10:15:13;5.05;;;1.90;;
81180;SDS011;70650;51.408;7.132;2023-09-12T10:17:40;4.95;;;1.83;;
81180;SDS011;70650;51.408;7.132;2023-09-12T10:20:13;5.10;;;1.70;;
81180;SDS011;70650;51.408;7.132;2023-09-12T10:22:47;3.30;;;1.58;;
81180;SDS011;70650;51.408;7.132;2023-09-12T10:25:20;4.20;;;1.70;;
81180;SDS011;70650;51.408;7.132;2023-09-12T10:27:48;3.97;;;1.65;;
81180;SDS011;70650;51.408;7.132;2023-09-12T10:30:15;4.25;;;1.58;;
81180;SDS011;70650;51.408;7.132;2023-09-12T10:32:43;4.38;;;1.80;;
81180;SDS011;70650;51.408;7.132;2023-09-12T10:35:11;4.72;;;2.00;;
81180;SDS011;70650;51.408;7.132;2023-09-12T10:37:36;5.10;;;2.08;;
81180;SDS011;70650;51.408;7.132;2023-09-12T10:40:07;6.65;;;1.95;;
81180;SDS011;70650;51.408;7.132;2023-09-12T10:42:33;5.22;;;2.40;;
81180;SDS011;70650;51.408;7.132;2023-09-12T10:44:59;5.95;;;2.50;;
81180;SDS011;70650;51.408;7.132;2023-09-12T10:47:28;5.63;;;2.72;;
81180;SDS011;70650;51.408;7.132;2023-09-12T10:49:55;5.53;;;2.42;;
81180;SDS011;70650;51.408;7.132;2023-09-12T10:52:25;7.63;;;2.92;;
81180;SDS011;70650;51.408;7.132;2023-09-12T10:54:51;6.32;;;3.17;;
81180;SDS011;70650;51.408;7.132;2023-09-12T10:57:18;6.10;;;2.80;;
81180;SDS011;70650;51.408;7.132;2023-09-12T11:04:57;8.20;;;3.70;;
81180;SDS011;70650;51.408;7.132;2023-09-12T11:07:32;7.57;;;4.47;;
81180;SDS011;70650;51.408;7.132;2023-09-12T11:12:40;8.05;;;4.00;;
81180;SDS011;70650;51.408;7.132;2023-09-12T11:15:09;6.90;;;3.78;;
81180;SDS011;70650;51.408;7.132;2023-09-12T11:17:39;7.05;;;3.90;;
81180;SDS011;70650;51.408;7.132;2023-09-12T11:20:06;7.97;;;4.28;;
81180;SDS011;70650;51.408;7.132;2023-09-12T11:22:35;7.50;;;4.35;;
81180;SDS011;70650;51.408;7.132;2023-09-12T11:25:04;7.00;;;3.65;;
81180;SDS011;70650;51.408;7.132;2023-09-12T11:28:01;6.57;;;3.50;;
81180;SDS011;70650;51.408;7.132;2023-09-12T11:30:29;6.22;;;3.42;;
81180;SDS011;70650;51.408;7.132;2023-09-12T11:32:57;6.40;;;3.30;;
81180;SDS011;70650;51.408;7.132;2023-09-12T11:35:25;6.85;;;3.00;;
81180;SDS011;70650;51.408;7.132;2023-09-12T11:37:53;7.00;;;3.83;;
81180;SDS011;70650;51.408;7.132;2023-09-12T11:42:58;7.25;;;3.70;;
81180;SDS011;70650;51.408;7.132;2023-09-12T11:45:24;6.40;;;3.38;;
81180;SDS011;70650;51.408;7.132;2023-09-12T11:47:50;7.95;;;3.25;;
81180;SDS011;70650;51.408;7.132;2023-09-12T11:50:26;9.23;;;4.03;;
81180;SDS011;70650;51.408;7.132;2023-09-12T11:55:30;9.32;;;4.95;;
81180;SDS011;70650;51.408;7.132;2023-09-12T11:57:57;6.60;;;3.78;;
81180;SDS011;70650;51.408;7.132;2023-09-12T12:00:22;8.15;;;3.42;;
81180;SDS011;70650;51.408;7.132;2023-09-12T12:02:49;5.93;;;3.13;;
81180;SDS011;70650;51.408;7.132;2023-09-12T12:05:14;7.20;;;3.20;;
81180;SDS011;70650;51.408;7.132;2023-09-12T12:07:40;4.72;;;2.50;;
81180;SDS011;70650;51.408;7.132;2023-09-12T12:10:08;7.10;;;3.25;;
81180;SDS011;70650;51.408;7.132;2023-09-12T12:12:33;7.15;;;3.20;;
81180;SDS011;70650;51.408;7.132;2023-09-12T12:14:58;5.90;;;3.03;;
81180;SDS011;70650;51.408;7.132;2023-09-12T12:17:24;5.93;;;3.40;;
81180;SDS011;70650;51.408;7.132;2023-09-12T12:19:49;6.60;;;4.00;;
81180;SDS011;70650;51.408;7.132;2023-09-12T12:22:15;6.30;;;3.63;;
81180;SDS011;70650;51.408;7.132;2023-09-12T12:24:46;8.25;;;4.07;;
81180;SDS011;70650;51.408;7.132;2023-09-12T12:27:15;6.00;;;2.72;;
81180;SDS011;70650;51.408;7.132;2023-09-12T12:29:41;6.20;;;3.42;;
81180;SDS011;70650;51.408;7.132;2023-09-12T12:32:08;8.65;;;4.50;;
81180;SDS011;70650;51.408;7.132;2023-09-12T12:34:36;7.75;;;3.97;;
81180;SDS011;70650;51.408;7.132;2023-09-12T12:37:02;6.60;;;3.72;;
81180;SDS011;70650;51.408;7.132;2023-09-12T12:39:28;8.80;;;4.43;;
81180;SDS011;70650;51.408;7.132;2023-09-12T12:41:56;7.10;;;4.05;;
81180;SDS011;70650;51.408;7.132;2023-09-12T12:44:22;8.07;;;4.82;;
81180;SDS011;70650;51.408;7.132;2023-09-12T12:46:51;7.95;;;4.00;;
81180;SDS011;70650;51.408;7.132;2023-09-12T12:51:46;6.57;;;4.32;;
81180;SDS011;70650;51.408;7.132;2023-09-12T12:54:12;7.60;;;4.35;;
81180;SDS011;70650;51.408;7.132;2023-09-12T12:56:38;7.18;;;4.15;;
81180;SDS011;70650;51.408;7.132;2023-09-12T12:59:06;7.88;;;5.93;;
81180;SDS011;70650;51.408;7.132;2023-09-12T13:01:36;6.93;;;4.07;;
81180;SDS011;70650;51.408;7.132;2023-09-12T13:04:06;8.82;;;4.63;;
81180;SDS011;70650;51.408;7.132;2023-09-12T13:06:33;7.30;;;4.25;;
81180;SDS011;70650;51.408;7.132;2023-09-12T13:09:01;9.65;;;5.82;;
81180;SDS011;70650;51.408;7.132;2023-09-12T13:11:30;8.77;;;5.20;;
81180;SDS011;70650;51.408;7.132;2023-09-12T13:13:55;7.07;;;4.32;;
81180;SDS011;70650;51.408;7.132;2023-09-12T13:16:21;9.07;;;4.43;;
81180;SDS011;70650;51.408;7.132;2023-09-12T13:18:47;8.55;;;4.97;;
81180;SDS011;70650;51.408;7.132;2023-09-12T13:21:12;8.77;;;4.70;;
81180;SDS011;70650;51.408;7.132;2023-09-12T13:23:38;7.40;;;4.38;;
81180;SDS011;70650;51.408;7.132;2023-09-12T13:26:03;8.70;;;4.68;;
81180;SDS011;70650;51.408;7.132;2023-09-12T13:28:29;6.20;;;4.40;;
81180;SDS011;70650;51.408;7.132;2023-09-12T13:30:55;8.13;;;5.28;;
81180;SDS011;70650;51.408;7.132;2023-09-12T13:33:22;7.82;;;4.97;;
81180;SDS011;70650;51.408;7.132;2023-09-12T13:35:48;7.88;;;4.90;;
81180;SDS011;70650;51.408;7.132;2023-09-12T13:38:14;6.85;;;4.80;;
81180;SDS011;70650;51.408;7.132;2023-09-12T13:40:41;7.88;;;4.50;;
81180;SDS011;70650;51.408;7.132;2023-09-12T13:43:08;8.73;;;4.97;;
81180;SDS011;70650;51.408;7.132;2023-09-12T13:45:34;8.20;;;4.88;;
81180;SDS011;70650;51.408;7.132;2023-09-12T13:48:01;7.90;;;5.32;;
81180;SDS011;70650;51.408;7.132;2023-09-12T13:50:28;7.15;;;5.03;;
81180;SDS011;70650;51.408;7.132;2023-09-12T13:52:55;8.77;;;5.57;;
81180;SDS011;70650;51.408;7.132;2023-09-12T13:55:21;7.43;;;4.90;;
81180;SDS011;70650;51.408;7.132;2023-09-12T13:57:48;7.93;;;4.85;;
81180;SDS011;70650;51.408;7.132;2023-09-12T14:00:13;8.32;;;5.60;;
81180;SDS011;70650;51.408;7.132;2023-09-12T14:02:39;7.30;;;5.13;;
81180;SDS011;70650;51.408;7.132;2023-09-12T14:05:05;8.68;;;6.07;;
81180;SDS011;70650;51.408;7.132;2023-09-12T14:07:30;8.25;;;6.40;;
81180;SDS011;70650;51.408;7.132;2023-09-12T14:09:56;8.47;;;6.57;;
81180;SDS011;70650;51.408;7.132;2023-09-12T14:12:22;8.10;;;6.38;;
81180;SDS011;70650;51.408;7.132;2023-09-12T14:14:48;7.97;;;5.78;;
81180;SDS011;70650;51.408;7.132;2023-09-12T14:17:13;6.57;;;5.57;;
81180;SDS011;70650;51.408;7.132;2023-09-12T14:19:39;7.22;;;5.65;;
81180;SDS011;70650;51.408;7.132;2023-09-12T14:22:06;7.45;;;5.63;;
81180;SDS011;70650;51.408;7.132;2023-09-12T14:24:31;8.13;;;5.95;;
81180;SDS011;70650;51.408;7.132;2023-09-12T14:26:58;7.30;;;4.88;;
81180;SDS011;70650;51.408;7.132;2023-09-12T14:29:23;7.70;;;5.40;;
81180;SDS011;70650;51.408;7.132;2023-09-12T14:31:53;8.48;;;6.53;;
81180;SDS011;70650;51.408;7.132;2023-09-12T14:34:22;8.35;;;6.13;;
81180;SDS011;70650;51.408;7.132;2023-09-12T14:36:48;8.13;;;6.22;;
81180;SDS011;70650;51.408;7.132;2023-09-12T14:39:14;6.90;;;5.17;;
81180;SDS011;70650;51.408;7.132;2023-09-12T14:41:40;7.43;;;5.40;;
81180;SDS011;70650;51.408;7.132;2023-09-12T14:44:06;8.15;;;7.22;;
81180;SDS011;70650;51.408;7.132;2023-09-12T14:46:34;6.72;;;5.03;;
81180;SDS011;70650;51.408;7.132;2023-09-12T14:48:59;7.38;;;5.53;;
81180;SDS011;70650;51.408;7.132;2023-09-12T14:51:24;6.97;;;4.87;;
81180;SDS011;70650;51.408;7.132;2023-09-12T14:53:50;6.97;;;5.45;;
81180;SDS011;70650;51.408;7.132;2023-09-12T14:56:15;9.18;;;5.32;;
81180;SDS011;70650;51.408;7.132;2023-09-12T14:58:41;8.65;;;5.88;;
81180;SDS011;70650;51.408;7.132;2023-09-12T15:01:06;7.60;;;4.70;;
81180;SDS011;70650;51.408;7.132;2023-09-12T15:03:31;7.43;;;6.03;;
81180;SDS011;70650;51.408;7.132;2023-09-12T15:06:01;7.07;;;4.93;;
81180;SDS011;70650;51.408;7.132;2023-09-12T15:08:26;7.80;;;4.40;;
81180;SDS011;70650;51.408;7.132;2023-09-12T15:10:52;9.38;;;5.13;;
81180;SDS011;70650;51.408;7.132;2023-09-12T15:13:17;8.45;;;5.05;;
81180;SDS011;70650;51.408;7.132;2023-09-12T15:15:42;9.82;;;4.75;;